createdAt,value
2022-10-03T03:59:14.527Z,20.97
2022-10-03T04:00:12.902Z,21.04
2022-10-03T04:01:12.992Z,20.97
2022-10-03T04:02:12.928Z,21.00
2022-10-03T04:03:12.884Z,21.03
2022-10-03T04:04:14.509Z,20.90
2022-10-03T04:05:12.868Z,20.97
2022-10-03T04:06:12.910Z,21.01
2022-10-03T04:07:12.861Z,21.03
2022-10-03T04:08:12.882Z,21.04
2022-10-03T04:09:14.509Z,21.01
2022-10-03T04:10:14.509Z,21.04
2022-10-03T04:11:14.512Z,21.06
2022-10-03T04:12:14.498Z,21.08
2022-10-03T04:13:14.520Z,21.01
2022-10-03T04:14:14.518Z,21.06
2022-10-03T04:15:14.540Z,21.04
2022-10-03T04:16:14.538Z,21.09
2022-10-03T04:17:14.506Z,21.12
2022-10-03T04:18:14.523Z,21.15
2022-10-03T04:19:14.543Z,21.19
2022-10-03T04:20:14.514Z,21.21
2022-10-03T04:21:18.785Z,21.23
2022-10-03T04:22:14.507Z,21.21
2022-10-03T04:23:14.531Z,21.16
2022-10-03T04:24:13.792Z,21.30
2022-10-03T04:25:14.552Z,21.18
2022-10-03T04:26:14.513Z,21.22
2022-10-03T04:27:14.510Z,21.33
2022-10-03T04:28:14.618Z,21.28
2022-10-03T04:29:14.524Z,21.33
2022-10-03T04:30:12.775Z,21.30
2022-10-03T04:31:12.768Z,21.31
2022-10-03T04:32:12.757Z,21.31
2022-10-03T04:33:12.765Z,21.37
2022-10-03T04:34:14.531Z,21.34
2022-10-03T04:35:12.762Z,21.38
2022-10-03T04:36:12.762Z,21.43
2022-10-03T04:37:12.749Z,21.43
2022-10-03T04:38:12.751Z,21.36
2022-10-03T04:39:14.550Z,21.40
2022-10-03T04:40:12.754Z,21.48
2022-10-03T04:41:12.730Z,21.52
2022-10-03T04:42:12.720Z,21.48
2022-10-03T04:43:14.530Z,21.46
2022-10-03T04:44:15.058Z,21.45
2022-10-03T04:45:13.718Z,21.43
2022-10-03T04:46:13.829Z,21.49
2022-10-03T04:47:14.547Z,21.59
2022-10-03T04:48:13.720Z,21.53
2022-10-03T04:49:14.555Z,21.51
2022-10-03T04:50:13.702Z,21.55
2022-10-03T04:51:14.533Z,21.49
2022-10-03T04:52:12.699Z,21.51
2022-10-03T04:53:14.559Z,21.66
2022-10-03T04:54:15.047Z,21.56
2022-10-03T04:55:12.685Z,21.59
2022-10-03T04:56:14.542Z,21.55
2022-10-03T04:57:12.693Z,21.64
2022-10-03T04:58:13.684Z,21.61
2022-10-03T04:59:14.055Z,21.64
2022-10-03T05:00:14.561Z,21.67
2022-10-03T05:01:13.714Z,21.70
2022-10-03T05:02:12.801Z,21.64
2022-10-03T05:03:12.852Z,21.64
2022-10-03T05:04:12.657Z,21.66
2022-10-03T05:05:15.101Z,21.66
2022-10-03T05:06:13.677Z,21.68
2022-10-03T05:07:12.690Z,21.66
2022-10-03T05:08:12.640Z,21.74
2022-10-03T05:09:14.060Z,21.80
2022-10-03T05:10:14.559Z,21.73
2022-10-03T05:11:12.638Z,21.73
2022-10-03T05:12:12.637Z,21.74
2022-10-03T05:13:12.623Z,21.74
2022-10-03T05:14:14.595Z,21.73
2022-10-03T05:15:14.565Z,21.80
2022-10-03T05:16:14.714Z,21.78
2022-10-03T05:17:14.546Z,21.74
2022-10-03T05:18:14.561Z,21.78
2022-10-03T05:19:14.592Z,21.82
2022-10-03T05:20:14.567Z,21.76
2022-10-03T05:21:14.566Z,21.77
2022-10-03T05:22:14.578Z,21.77
2022-10-03T05:23:14.583Z,21.82
2022-10-03T05:24:14.575Z,21.78
2022-10-03T05:25:14.595Z,21.83
2022-10-03T05:26:43.030Z,21.77
2022-10-03T05:27:14.570Z,21.85
2022-10-03T05:28:13.633Z,21.78
2022-10-03T05:29:14.072Z,21.83
2022-10-03T05:30:12.590Z,21.80
2022-10-03T05:31:14.126Z,21.85
2022-10-03T05:32:12.574Z,21.80
2022-10-03T05:33:14.588Z,21.82
2022-10-03T05:34:12.603Z,21.83
2022-10-03T05:35:12.577Z,21.77
2022-10-03T05:36:12.566Z,21.85
2022-10-03T05:37:14.091Z,21.92
2022-10-03T05:38:12.578Z,21.89
2022-10-03T05:39:12.575Z,21.89
2022-10-03T05:40:14.124Z,21.90
2022-10-03T05:41:12.557Z,21.89
2022-10-03T05:42:22.601Z,21.82
2022-10-03T05:43:12.546Z,21.94
2022-10-03T05:44:14.105Z,21.92
2022-10-03T05:45:14.084Z,21.90
2022-10-03T05:46:12.623Z,21.93
2022-10-03T05:47:14.073Z,21.94
2022-10-03T05:48:14.087Z,21.94
2022-10-03T05:49:14.108Z,21.94
2022-10-03T05:50:18.079Z,21.94
2022-10-03T05:51:14.090Z,21.92
2022-10-03T05:52:14.215Z,21.93
2022-10-03T05:53:14.082Z,21.94
2022-10-03T05:54:14.096Z,22.02
2022-10-03T05:55:14.089Z,22.02
2022-10-03T05:56:12.500Z,22.05
2022-10-03T05:57:14.165Z,22.05
2022-10-03T05:58:14.096Z,22.02
2022-10-03T05:59:12.508Z,22.08
2022-10-03T06:00:12.493Z,22.07
2022-10-03T06:01:13.616Z,22.05
2022-10-03T06:02:12.534Z,22.07
2022-10-03T06:03:14.165Z,22.02
2022-10-03T06:04:12.485Z,22.09
2022-10-03T06:05:12.505Z,22.08
2022-10-03T06:06:12.489Z,22.11
2022-10-03T06:07:12.490Z,22.08
2022-10-03T06:08:14.607Z,22.11
2022-10-03T06:09:12.487Z,22.07
2022-10-03T06:10:12.467Z,22.07
2022-10-03T06:11:14.111Z,22.12
2022-10-03T06:12:12.458Z,22.11
2022-10-03T06:13:14.184Z,22.09
2022-10-03T06:14:12.460Z,22.11
2022-10-03T06:15:14.118Z,22.12
2022-10-03T06:16:13.521Z,22.11
2022-10-03T06:17:12.462Z,22.15
2022-10-03T06:18:13.443Z,22.22
2022-10-03T06:19:14.126Z,22.27
2022-10-03T06:20:14.120Z,22.20
2022-10-03T06:21:12.438Z,22.20
2022-10-03T06:22:14.227Z,22.23
2022-10-03T06:23:13.427Z,22.16
2022-10-03T06:24:14.141Z,22.18
2022-10-03T06:25:13.438Z,22.22
2022-10-03T06:26:14.112Z,22.27
2022-10-03T06:27:14.116Z,22.26
2022-10-03T06:28:14.175Z,22.27
2022-10-03T06:29:14.117Z,22.24
2022-10-03T06:30:14.133Z,22.27
2022-10-03T06:31:14.201Z,22.29
2022-10-03T06:32:14.121Z,22.30
2022-10-03T06:33:13.428Z,22.29
2022-10-03T06:34:13.635Z,22.30
2022-10-03T06:35:13.420Z,22.31
2022-10-03T06:36:12.401Z,22.34
2022-10-03T06:37:12.384Z,22.34
2022-10-03T06:38:14.143Z,22.34
2022-10-03T06:39:13.386Z,22.34
2022-10-03T06:40:12.399Z,22.41
2022-10-03T06:41:14.148Z,22.38
2022-10-03T06:42:12.407Z,22.44
2022-10-03T06:43:14.139Z,22.38
2022-10-03T06:44:13.363Z,22.45
2022-10-03T06:45:12.367Z,22.44
2022-10-03T06:46:14.175Z,22.46
2022-10-03T06:47:14.123Z,22.54
2022-10-03T06:48:14.156Z,22.51
2022-10-03T06:49:14.132Z,22.48
2022-10-03T06:50:14.125Z,22.42
2022-10-03T06:51:14.132Z,22.61
2022-10-03T06:52:14.158Z,22.60
2022-10-03T06:53:14.152Z,22.60
2022-10-03T06:54:12.446Z,22.66
2022-10-03T06:55:14.137Z,22.64
2022-10-03T06:56:14.149Z,22.55
2022-10-03T06:57:14.159Z,22.64
2022-10-03T06:58:14.177Z,22.66
2022-10-03T06:59:14.157Z,22.70
2022-10-03T07:00:14.137Z,22.70
2022-10-03T07:01:12.406Z,22.78
2022-10-03T07:02:12.403Z,22.71
2022-10-03T07:03:13.662Z,22.70
2022-10-03T07:04:13.670Z,22.71
2022-10-03T07:05:12.326Z,22.75
2022-10-03T07:06:12.328Z,22.82
2022-10-03T07:07:14.163Z,22.78
2022-10-03T07:08:12.309Z,22.81
2022-10-03T07:09:13.677Z,22.85
2022-10-03T07:10:12.315Z,22.79
2022-10-03T07:11:12.307Z,22.79
2022-10-03T07:12:14.402Z,22.78
2022-10-03T07:13:13.682Z,22.84
2022-10-03T07:14:14.178Z,22.86
2022-10-03T07:15:12.307Z,22.82
2022-10-03T07:16:26.394Z,22.88
2022-10-03T07:17:12.337Z,22.92
2022-10-03T07:18:14.184Z,22.86
2022-10-03T07:19:14.155Z,22.96
2022-10-03T07:20:14.197Z,22.89
2022-10-03T07:21:16.881Z,22.99
2022-10-03T07:22:14.165Z,22.91
2022-10-03T07:23:14.164Z,22.89
2022-10-03T07:24:14.168Z,22.89
2022-10-03T07:25:14.184Z,22.91
2022-10-03T07:26:14.171Z,23.00
2022-10-03T07:27:14.166Z,23.06
2022-10-03T07:28:14.226Z,23.03
2022-10-03T07:29:14.210Z,22.99
2022-10-03T07:30:14.170Z,23.09
2022-10-03T07:31:14.267Z,23.01
2022-10-03T07:32:14.182Z,23.04
2022-10-03T07:33:14.184Z,23.01
2022-10-03T07:34:12.252Z,23.04
2022-10-03T07:35:12.253Z,23.03
2022-10-03T07:36:12.255Z,23.09
2022-10-03T07:37:14.228Z,23.14
2022-10-03T07:38:12.249Z,23.03
2022-10-03T07:39:12.248Z,23.07
2022-10-03T07:40:14.218Z,23.10
2022-10-03T07:41:12.249Z,23.04
2022-10-03T07:42:14.220Z,23.21
2022-10-03T07:43:12.300Z,23.18
2022-10-03T07:44:13.690Z,23.19
2022-10-03T07:45:14.204Z,23.22
2022-10-03T07:46:12.333Z,23.19
2022-10-03T07:47:14.210Z,23.24
2022-10-03T07:48:12.226Z,23.26
2022-10-03T07:49:17.652Z,23.25
2022-10-03T07:50:14.203Z,23.34
2022-10-03T07:51:13.224Z,23.25
2022-10-03T07:52:12.222Z,23.26
2022-10-03T07:53:14.189Z,23.38
2022-10-03T07:54:13.244Z,23.38
2022-10-03T07:55:14.227Z,23.44
2022-10-03T07:56:13.221Z,23.42
2022-10-03T07:57:14.190Z,23.37
2022-10-03T07:58:12.219Z,23.34
2022-10-03T07:59:14.196Z,23.44
2022-10-03T08:00:13.738Z,23.40
2022-10-03T08:01:14.188Z,23.53
2022-10-03T08:02:13.244Z,23.60
2022-10-03T08:03:13.824Z,23.53
2022-10-03T08:04:13.706Z,23.57
2022-10-03T08:05:13.709Z,23.64
2022-10-03T08:06:13.222Z,23.62
2022-10-03T08:07:13.706Z,23.67
2022-10-03T08:08:13.702Z,23.78
2022-10-03T08:09:13.725Z,23.84
2022-10-03T08:10:14.230Z,23.82
2022-10-03T08:11:12.216Z,23.81
2022-10-03T08:12:12.184Z,23.84
2022-10-03T08:13:12.205Z,23.92
2022-10-03T08:14:13.194Z,23.89
2022-10-03T08:15:13.189Z,24.02
2022-10-03T08:16:13.269Z,23.99
2022-10-03T08:17:12.179Z,23.99
2022-10-03T08:18:12.194Z,24.00
2022-10-03T08:19:13.237Z,24.02
2022-10-03T08:20:13.178Z,24.07
2022-10-03T08:21:13.714Z,24.04
2022-10-03T08:22:13.757Z,24.04
2022-10-03T08:23:13.717Z,24.15
2022-10-03T08:24:13.231Z,24.15
2022-10-03T08:25:13.728Z,24.19
2022-10-03T08:26:13.745Z,24.21
2022-10-03T08:27:13.751Z,24.22
2022-10-03T08:28:13.846Z,24.29
2022-10-03T08:29:13.721Z,24.26
2022-10-03T08:30:13.737Z,24.22
2022-10-03T08:31:13.804Z,24.32
2022-10-03T08:32:13.750Z,24.30
2022-10-03T08:33:13.723Z,24.32
2022-10-03T08:34:13.740Z,24.32
2022-10-03T08:35:13.734Z,24.39
2022-10-03T08:36:13.728Z,24.51
2022-10-03T08:37:13.736Z,24.39
2022-10-03T08:38:13.768Z,24.45
2022-10-03T08:39:13.737Z,24.54
2022-10-03T08:40:13.759Z,24.52
2022-10-03T08:41:13.759Z,24.54
2022-10-03T08:42:12.159Z,24.63
2022-10-03T08:43:13.748Z,24.63
2022-10-03T08:44:12.166Z,24.59
2022-10-03T08:45:13.747Z,24.63
2022-10-03T08:46:12.264Z,24.67
2022-10-03T08:47:12.153Z,24.69
2022-10-03T08:48:12.150Z,24.71
2022-10-03T08:49:12.158Z,24.71
2022-10-03T08:50:13.778Z,24.75
2022-10-03T08:51:12.150Z,24.66
2022-10-03T08:52:13.752Z,24.71
2022-10-03T08:53:13.772Z,24.66
2022-10-03T08:54:13.164Z,24.74
2022-10-03T08:55:13.752Z,24.64
2022-10-03T08:56:13.754Z,24.70
2022-10-03T08:57:13.756Z,24.67
2022-10-03T08:58:13.744Z,24.64
2022-10-03T08:59:13.745Z,24.77
2022-10-03T09:00:13.767Z,24.70
2022-10-03T09:01:13.953Z,24.66
2022-10-03T09:02:13.867Z,24.71
2022-10-03T09:03:33.026Z,24.71
2022-10-03T09:04:12.143Z,24.78
2022-10-03T09:05:13.782Z,24.82
2022-10-03T09:06:13.772Z,24.82
2022-10-03T09:07:17.529Z,24.83
2022-10-03T09:08:13.756Z,24.71
2022-10-03T09:09:13.775Z,24.82
2022-10-03T09:10:13.777Z,24.77
2022-10-03T09:11:13.756Z,24.80
2022-10-03T09:12:13.791Z,24.77
2022-10-03T09:13:13.785Z,24.87
2022-10-03T09:14:13.783Z,24.89
2022-10-03T09:15:13.779Z,24.86
2022-10-03T09:16:18.217Z,24.87
2022-10-03T09:17:12.163Z,24.87
2022-10-03T09:18:13.796Z,24.93
2022-10-03T09:19:13.153Z,24.90
2022-10-03T09:20:12.139Z,24.90
2022-10-03T09:21:12.144Z,24.93
2022-10-03T09:22:12.156Z,24.97
2022-10-03T09:23:13.825Z,24.94
2022-10-03T09:24:13.174Z,24.89
2022-10-03T09:25:12.135Z,25.02
2022-10-03T09:26:13.795Z,24.93
2022-10-03T09:27:12.148Z,25.05
2022-10-03T09:28:13.862Z,25.05
2022-10-03T09:29:13.148Z,25.02
2022-10-03T09:30:13.806Z,25.01
2022-10-03T09:31:13.883Z,25.07
2022-10-03T09:32:13.776Z,25.07
2022-10-03T09:33:13.827Z,25.04
2022-10-03T09:34:13.799Z,25.09
2022-10-03T09:35:13.781Z,25.12
2022-10-03T09:36:13.801Z,25.14
2022-10-03T09:37:13.786Z,25.15
2022-10-03T09:38:13.813Z,25.14
2022-10-03T09:39:13.787Z,25.15
2022-10-03T09:40:16.970Z,25.24
2022-10-03T09:41:13.815Z,25.23
2022-10-03T09:42:13.794Z,25.24
2022-10-03T09:43:13.811Z,25.27
2022-10-03T09:44:13.813Z,25.24
2022-10-03T09:45:13.791Z,25.27
2022-10-03T09:46:13.191Z,25.30
2022-10-03T09:47:13.797Z,25.38
2022-10-03T09:48:13.309Z,25.29
2022-10-03T09:49:13.810Z,25.38
2022-10-03T09:50:13.812Z,25.48
2022-10-03T09:51:13.849Z,25.47
2022-10-03T09:52:12.153Z,25.37
2022-10-03T09:53:13.840Z,25.41
2022-10-03T09:54:13.159Z,25.52
2022-10-03T09:55:13.808Z,25.48
2022-10-03T09:56:13.144Z,25.56
2022-10-03T09:57:13.803Z,25.60
2022-10-03T09:58:13.857Z,25.56
2022-10-03T09:59:13.208Z,25.62
2022-10-03T10:00:13.821Z,25.69
2022-10-03T10:01:13.892Z,25.76
2022-10-03T10:02:12.136Z,25.78
2022-10-03T10:13:22.046Z,26.09
2022-10-03T10:14:21.516Z,26.12
2022-10-03T10:15:21.425Z,26.12
2022-10-03T10:16:20.457Z,26.11
2022-10-03T10:17:22.001Z,26.16
2022-10-03T10:18:21.420Z,26.11
2022-10-03T10:19:22.018Z,26.19
2022-10-03T10:20:22.529Z,26.11
2022-10-03T10:21:20.416Z,26.23
2022-10-03T10:22:22.017Z,26.31
2022-10-03T10:23:22.022Z,26.27
2022-10-03T10:24:22.016Z,26.19
2022-10-03T10:25:22.041Z,26.35
2022-10-03T10:26:21.432Z,26.35
2022-10-03T10:27:22.045Z,26.39
2022-10-03T10:28:22.138Z,26.42
2022-10-03T10:29:20.460Z,26.44
2022-10-03T10:30:22.027Z,26.41
2022-10-03T10:31:20.532Z,26.52
2022-10-03T10:32:22.055Z,26.54
2022-10-03T10:33:22.022Z,26.54
2022-10-03T10:34:20.432Z,26.57
2022-10-03T10:35:22.037Z,26.64
2022-10-03T10:36:22.024Z,26.64
2022-10-03T10:37:22.041Z,26.71
2022-10-03T10:38:20.450Z,26.74
2022-10-03T10:39:22.052Z,26.81
2022-10-03T10:40:22.046Z,26.81
2022-10-03T10:41:22.033Z,26.82
2022-10-03T10:42:24.067Z,26.97
2022-10-03T10:43:22.057Z,27.00
2022-10-03T10:44:22.061Z,27.01
2022-10-03T10:45:22.067Z,27.11
2022-10-03T10:46:22.104Z,27.18
2022-10-03T10:47:22.053Z,27.24
2022-10-03T10:48:22.039Z,27.33
2022-10-03T10:49:22.039Z,27.30
2022-10-03T10:50:22.067Z,27.41
2022-10-03T10:51:22.043Z,27.48
2022-10-03T10:52:22.038Z,27.53
2022-10-03T10:53:22.075Z,27.55
2022-10-03T10:54:22.067Z,27.64
2022-10-03T10:55:22.121Z,27.59
2022-10-03T10:56:22.066Z,27.69
2022-10-03T10:57:22.060Z,27.72
2022-10-03T10:58:22.059Z,27.80
2022-10-03T10:59:22.070Z,27.86
2022-10-03T11:00:22.076Z,27.89
2022-10-03T11:01:22.134Z,27.89
2022-10-03T11:02:22.055Z,27.99
2022-10-03T11:03:22.063Z,28.02
2022-10-03T11:04:22.099Z,28.01
2022-10-03T11:05:22.063Z,28.16
2022-10-03T11:06:21.583Z,28.16
2022-10-03T11:07:20.510Z,28.28
2022-10-03T11:08:20.504Z,28.28
2022-10-03T11:09:20.517Z,28.33
2022-10-03T11:10:20.520Z,28.27
2022-10-03T11:11:22.086Z,28.26
2022-10-03T11:12:22.062Z,28.36
2022-10-03T11:13:20.520Z,28.43
2022-10-03T11:14:22.080Z,28.49
2022-10-03T11:15:22.074Z,28.61
2022-10-03T11:16:22.176Z,28.63
2022-10-03T11:17:22.111Z,28.65
2022-10-03T11:18:22.075Z,28.63
2022-10-03T11:19:22.090Z,28.64
2022-10-03T11:20:22.087Z,28.53
2022-10-03T11:21:22.086Z,28.63
2022-10-03T11:22:22.082Z,28.63
2022-10-03T11:23:22.106Z,28.58
2022-10-03T11:24:22.082Z,28.57
2022-10-03T11:25:22.122Z,28.51
2022-10-03T11:26:20.557Z,28.57
2022-10-03T11:27:20.577Z,28.54
2022-10-03T11:28:26.373Z,28.49
2022-10-03T11:29:20.582Z,28.41
2022-10-03T11:30:21.621Z,28.45
2022-10-03T11:31:22.684Z,28.45
2022-10-03T11:32:20.580Z,28.42
2022-10-03T11:33:20.590Z,28.45
2022-10-03T11:34:20.599Z,28.43
2022-10-03T11:35:20.623Z,28.39
2022-10-03T11:36:22.106Z,28.42
2022-10-03T11:37:20.622Z,28.55
2022-10-03T11:38:20.604Z,28.53
2022-10-03T11:39:20.591Z,28.60
2022-10-03T11:40:20.616Z,28.54
2022-10-03T11:41:22.115Z,28.51
2022-10-03T11:42:22.119Z,28.39
2022-10-03T11:43:20.609Z,28.55
2022-10-03T11:44:20.666Z,28.51
2022-10-03T11:45:21.656Z,28.42
2022-10-03T11:46:22.613Z,28.41
2022-10-03T11:47:22.137Z,28.45
2022-10-03T11:48:20.631Z,28.43
2022-10-03T11:49:22.133Z,28.43
2022-10-03T11:50:21.635Z,28.41
2022-10-03T11:51:22.626Z,28.43
2022-10-03T11:52:20.650Z,28.35
2022-10-03T11:53:22.642Z,28.35
2022-10-03T11:54:31.996Z,28.30
2022-10-03T11:55:20.628Z,28.33
2022-10-03T11:56:22.625Z,28.17
2022-10-03T11:57:20.647Z,27.99
2022-10-03T11:58:22.140Z,28.01
2022-10-03T11:59:23.760Z,27.90
2022-10-03T12:00:22.622Z,27.89
2022-10-03T12:01:20.650Z,27.93
2022-10-03T12:02:22.645Z,27.76
2022-10-03T12:03:22.710Z,27.68
2022-10-03T12:04:21.647Z,27.68
2022-10-03T12:05:22.144Z,27.59
2022-10-03T12:06:21.649Z,27.57
2022-10-03T12:07:22.641Z,27.68
2022-10-03T12:08:23.160Z,27.65
2022-10-03T12:09:20.656Z,27.75
2022-10-03T12:10:20.691Z,27.86
2022-10-03T12:11:20.674Z,28.01
2022-10-03T12:12:20.664Z,28.06
2022-10-03T12:13:22.651Z,28.11
2022-10-03T12:14:22.644Z,28.17
2022-10-03T12:15:22.633Z,28.20
2022-10-03T12:16:22.656Z,28.35
2022-10-03T12:17:20.687Z,28.42
2022-10-03T12:18:22.664Z,28.60
2022-10-03T12:19:22.680Z,28.79
2022-10-03T12:20:22.650Z,28.85
2022-10-03T12:21:22.264Z,28.94
2022-10-03T12:22:22.636Z,28.83
2022-10-03T12:23:22.660Z,28.83
2022-10-03T12:24:20.684Z,28.92
2022-10-03T12:25:22.667Z,29.06
2022-10-03T12:26:22.642Z,29.14
2022-10-03T12:27:22.658Z,29.43
2022-10-03T12:28:22.691Z,29.39
2022-10-03T12:29:22.647Z,29.52
2022-10-03T12:30:22.688Z,29.43
2022-10-03T12:31:22.755Z,29.51
2022-10-03T12:32:22.656Z,29.39
2022-10-03T12:33:22.648Z,29.47
2022-10-03T12:34:22.666Z,29.65
2022-10-03T12:35:20.727Z,29.73
2022-10-03T12:36:20.725Z,29.82
2022-10-03T12:37:20.748Z,29.85
2022-10-03T12:38:20.737Z,29.95
2022-10-03T12:39:22.709Z,30.03
2022-10-03T12:40:20.742Z,30.09
2022-10-03T12:41:20.747Z,30.29
2022-10-03T12:42:20.732Z,30.40
2022-10-03T12:43:20.751Z,30.66
2022-10-03T12:44:22.679Z,30.66
2022-10-03T12:45:22.175Z,30.66
2022-10-03T12:46:22.736Z,30.75
2022-10-03T12:47:37.721Z,30.86
2022-10-03T12:48:22.688Z,30.88
2022-10-03T12:49:20.758Z,30.88
2022-10-03T12:50:24.206Z,30.73
2022-10-03T12:51:22.668Z,30.67
2022-10-03T12:52:23.693Z,30.63
2022-10-03T12:53:22.674Z,30.69
2022-10-03T12:54:26.472Z,30.82
2022-10-03T12:55:23.674Z,30.85
2022-10-03T12:56:22.682Z,30.81
2022-10-03T12:57:22.677Z,30.66
2022-10-03T12:58:22.700Z,30.48
2022-10-03T12:59:22.713Z,30.35
2022-10-03T13:00:22.679Z,30.29
2022-10-03T13:01:22.704Z,30.10
2022-10-03T13:02:22.863Z,29.89
2022-10-03T13:03:22.688Z,29.87
2022-10-03T13:04:22.696Z,29.69
2022-10-03T13:05:22.697Z,29.67
2022-10-03T13:06:38.829Z,29.61
2022-10-03T13:07:22.707Z,29.57
2022-10-03T13:08:22.817Z,29.58
2022-10-03T13:09:22.690Z,29.43
2022-10-03T13:10:22.728Z,29.40
2022-10-03T13:11:20.834Z,29.29
2022-10-03T13:12:25.428Z,29.15
2022-10-03T13:13:20.845Z,29.10
2022-10-03T13:14:20.841Z,29.03
2022-10-03T13:15:22.220Z,28.92
2022-10-03T13:16:20.932Z,28.94
2022-10-03T13:17:20.847Z,28.92
2022-10-03T13:18:20.851Z,28.86
2022-10-03T13:19:21.854Z,28.82
2022-10-03T13:20:20.861Z,28.72
2022-10-03T13:21:44.422Z,28.70
2022-10-03T13:22:20.871Z,28.46
2022-10-03T13:23:22.712Z,28.42
2022-10-03T13:24:21.876Z,28.30
2022-10-03T13:25:20.866Z,28.26
2022-10-03T13:26:22.733Z,28.20
2022-10-03T13:27:20.867Z,28.03
2022-10-03T13:28:24.342Z,27.98
2022-10-03T13:29:22.724Z,27.90
2022-10-03T13:30:20.896Z,27.80
2022-10-03T13:31:22.814Z,27.76
2022-10-03T13:32:20.904Z,27.64
2022-10-03T13:33:22.713Z,27.65
2022-10-03T13:34:21.882Z,27.52
2022-10-03T13:35:22.748Z,27.46
2022-10-03T13:36:21.897Z,27.28
2022-10-03T13:37:20.882Z,27.30
2022-10-03T13:38:22.719Z,27.21
2022-10-03T13:39:21.893Z,27.06
2022-10-03T13:40:22.255Z,27.00
2022-10-03T13:41:20.890Z,26.91
2022-10-03T13:42:22.752Z,26.86
2022-10-03T13:43:20.901Z,26.84
2022-10-03T13:44:20.899Z,26.75
2022-10-03T13:45:22.243Z,26.74
2022-10-03T13:46:21.989Z,26.63
2022-10-03T13:47:22.763Z,26.59
2022-10-03T13:48:21.893Z,26.67
2022-10-03T13:49:22.783Z,26.84
2022-10-03T13:50:22.747Z,26.96
2022-10-03T13:51:22.755Z,26.99
2022-10-03T13:52:22.758Z,27.05
2022-10-03T13:53:22.756Z,26.94
2022-10-03T13:54:20.901Z,26.89
2022-10-03T13:55:22.737Z,26.89
2022-10-03T13:56:22.759Z,26.78
2022-10-03T13:57:22.749Z,26.79
2022-10-03T13:58:22.788Z,26.71
2022-10-03T13:59:22.379Z,26.57
2022-10-03T14:00:22.743Z,26.54
2022-10-03T14:01:22.809Z,26.53
2022-10-03T14:02:20.945Z,26.50
2022-10-03T14:03:22.809Z,26.47
2022-10-03T14:04:20.902Z,26.35
2022-10-03T14:05:20.927Z,26.30
2022-10-03T14:06:22.267Z,26.37
2022-10-03T14:07:20.912Z,26.27
2022-10-03T14:08:22.767Z,26.31
2022-10-03T14:09:23.274Z,26.23
2022-10-03T14:10:20.912Z,26.26
2022-10-03T14:11:20.905Z,26.24
2022-10-03T14:12:33.125Z,26.19
2022-10-03T14:13:20.911Z,26.19
2022-10-03T14:14:22.781Z,26.19
2022-10-03T14:15:20.904Z,26.11
2022-10-03T14:16:20.974Z,26.07
2022-10-03T14:17:22.804Z,26.07
2022-10-03T14:18:22.803Z,26.04
2022-10-03T14:19:22.271Z,26.11
2022-10-03T14:20:22.784Z,25.99
2022-10-03T14:21:22.775Z,25.97
2022-10-03T14:22:22.778Z,25.93
2022-10-03T14:23:22.796Z,25.88
2022-10-03T14:24:22.794Z,25.79
2022-10-03T14:25:22.909Z,25.76
2022-10-03T14:26:22.781Z,25.82
2022-10-03T14:27:22.783Z,25.71
2022-10-03T14:28:22.928Z,25.71
2022-10-03T14:29:22.801Z,25.70
2022-10-03T14:30:22.775Z,25.51
2022-10-03T14:31:22.015Z,25.59
2022-10-03T14:32:46.080Z,25.51
2022-10-03T14:33:22.777Z,25.42
2022-10-03T14:34:22.804Z,25.48
2022-10-03T14:35:22.827Z,25.48
2022-10-03T14:36:22.812Z,25.38
2022-10-03T14:37:22.785Z,25.39
2022-10-03T14:38:22.791Z,25.32
2022-10-03T14:39:22.781Z,25.32
2022-10-03T14:40:22.787Z,25.26
2022-10-03T14:41:22.817Z,25.27
2022-10-03T14:42:22.787Z,25.17
2022-10-03T14:43:22.794Z,25.17
2022-10-03T14:44:22.813Z,25.12
2022-10-03T14:45:20.892Z,25.17
2022-10-03T14:46:22.372Z,25.23
2022-10-03T14:47:20.885Z,25.23
2022-10-03T14:48:21.888Z,25.22
2022-10-03T14:49:48.510Z,25.22
2022-10-03T14:50:22.814Z,25.30
2022-10-03T14:51:20.893Z,25.20
2022-10-03T14:52:20.890Z,25.17
2022-10-03T14:53:20.891Z,25.15
2022-10-03T14:54:20.889Z,25.15
2022-10-03T14:55:25.280Z,25.14
2022-10-03T14:56:21.911Z,25.09
2022-10-03T14:57:22.335Z,25.02
2022-10-03T14:58:21.889Z,25.12
2022-10-03T14:59:20.951Z,25.00
2022-10-03T15:01:21.881Z,25.05
2022-10-03T15:02:20.921Z,25.02
2022-10-03T15:03:22.891Z,24.90
2022-10-03T15:04:22.329Z,24.93
2022-10-03T15:05:22.831Z,24.87
2022-10-03T15:06:23.318Z,24.86
2022-10-03T15:07:20.885Z,24.71
2022-10-03T15:08:22.812Z,24.80
2022-10-03T15:09:22.815Z,24.74
2022-10-03T15:10:22.810Z,24.70
2022-10-03T15:11:22.828Z,24.71
2022-10-03T15:12:22.808Z,24.66
2022-10-03T15:13:22.810Z,24.59
2022-10-03T15:14:22.818Z,24.66
2022-10-03T15:15:22.824Z,24.64
2022-10-03T15:16:23.066Z,24.64
2022-10-03T15:17:22.827Z,24.49
2022-10-03T15:18:22.847Z,24.55
2022-10-03T15:19:20.869Z,24.49
2022-10-03T15:20:22.828Z,24.49
2022-10-03T15:21:22.330Z,24.45
2022-10-03T15:22:20.865Z,24.40
2022-10-03T15:23:22.845Z,24.39
2022-10-03T15:24:25.289Z,24.44
2022-10-03T15:25:22.828Z,24.40
2022-10-03T15:26:21.865Z,24.37
2022-10-03T15:27:22.827Z,24.36
2022-10-03T15:28:22.900Z,24.36
2022-10-03T15:29:22.858Z,24.29
2022-10-03T15:30:24.220Z,24.30
2022-10-03T15:31:22.886Z,24.29
2022-10-03T15:32:20.848Z,24.24
2022-10-03T15:33:22.852Z,24.24
2022-10-03T15:34:22.854Z,24.24
2022-10-03T15:35:22.833Z,24.22
2022-10-03T15:36:22.841Z,24.21
2022-10-03T15:37:22.837Z,24.09
2022-10-03T15:38:20.843Z,24.17
2022-10-03T15:39:22.354Z,24.21
2022-10-03T15:40:21.849Z,24.14
2022-10-03T15:41:20.849Z,24.12
2022-10-03T15:42:20.836Z,24.15
2022-10-03T15:43:21.853Z,24.09
2022-10-03T15:44:20.847Z,24.09
2022-10-03T15:45:20.841Z,24.03
2022-10-03T15:46:21.976Z,24.09
2022-10-03T15:47:20.954Z,24.00
2022-10-03T15:48:20.823Z,24.00
2022-10-03T15:49:20.854Z,24.02
2022-10-03T15:50:20.985Z,23.89
2022-10-03T15:51:22.363Z,23.93
2022-10-03T15:52:20.820Z,24.00
2022-10-03T15:53:37.364Z,23.93
2022-10-03T15:54:20.821Z,23.87
2022-10-03T15:55:21.825Z,23.87
2022-10-03T15:56:22.009Z,23.89
2022-10-03T15:57:22.372Z,23.81
2022-10-03T15:58:22.385Z,23.79
2022-10-03T15:59:21.863Z,23.85
2022-10-03T16:00:22.378Z,23.75
2022-10-03T16:12:29.527Z,23.47
2022-10-03T16:13:29.497Z,23.45
2022-10-03T16:14:29.531Z,23.40
2022-10-03T16:15:27.873Z,23.41
2022-10-03T16:16:29.552Z,23.37
2022-10-03T16:17:29.512Z,23.29
2022-10-03T16:18:29.512Z,23.25
2022-10-03T16:19:27.861Z,23.26
2022-10-03T16:20:29.506Z,23.24
2022-10-03T16:21:29.573Z,23.22
2022-10-03T16:22:29.534Z,23.16
2022-10-03T16:23:29.511Z,23.19
2022-10-03T16:24:29.508Z,23.21
2022-10-03T16:25:29.538Z,23.10
2022-10-03T16:26:29.529Z,23.14
2022-10-03T16:27:29.526Z,23.07
2022-10-03T16:28:29.701Z,23.09
2022-10-03T16:29:29.510Z,23.10
2022-10-03T16:30:29.541Z,23.09
2022-10-03T16:31:29.578Z,23.03
2022-10-03T16:32:29.538Z,23.09
2022-10-03T16:33:29.514Z,23.01
2022-10-03T16:34:28.539Z,23.04
2022-10-03T16:35:29.061Z,23.06
2022-10-03T16:36:27.827Z,22.97
2022-10-03T16:37:27.815Z,22.96
2022-10-03T16:38:27.831Z,22.97
2022-10-03T16:39:29.530Z,22.97
2022-10-03T16:40:29.562Z,22.92
2022-10-03T16:41:28.807Z,22.94
2022-10-03T16:42:29.522Z,22.96
2022-10-03T16:43:27.799Z,22.85
2022-10-03T16:44:28.822Z,22.86
2022-10-03T16:45:29.644Z,22.81
2022-10-03T16:46:29.540Z,22.86
2022-10-03T16:47:27.799Z,22.84
2022-10-03T16:48:29.530Z,22.85
2022-10-03T16:49:29.542Z,22.82
2022-10-03T16:50:29.571Z,22.82
2022-10-03T16:51:29.566Z,22.76
2022-10-03T16:52:29.540Z,22.66
2022-10-03T16:53:29.552Z,22.66
2022-10-03T16:54:29.537Z,22.75
2022-10-03T16:55:29.556Z,22.70
2022-10-03T16:56:29.555Z,22.67
2022-10-03T16:57:29.571Z,22.70
2022-10-03T16:58:29.541Z,22.64
2022-10-03T16:59:29.550Z,22.64
2022-10-03T17:00:29.545Z,22.57
2022-10-03T17:01:29.630Z,22.59
2022-10-03T17:02:29.668Z,22.67
2022-10-03T17:03:29.565Z,22.54
2022-10-03T17:04:29.548Z,22.60
2022-10-03T17:05:29.551Z,22.66
2022-10-03T17:06:29.570Z,22.55
2022-10-03T17:07:29.546Z,22.45
2022-10-03T17:08:41.827Z,22.51
2022-10-03T17:09:27.753Z,22.54
2022-10-03T17:10:27.752Z,22.45
2022-10-03T17:11:28.728Z,22.49
2022-10-03T17:12:28.761Z,22.51
2022-10-03T17:13:29.562Z,22.51